Time;durP1;ratioP1;P1;durP2;ratioP2;P2;SDS_P1;SDS_P2;PMS_P1;PMS_P2;Temp;Humidity;BMP_temperature;BMP_pressure;BME280_temperature;BME280_humidity;BME280_pressure;Samples;Min_cycle;Max_cycle;Signal;HPM_P1;HPM_P2
2022/08/23 04:43:18;;;;;;;;;;;24.90;92.70;;;;;;5036083;28;19932;-79
2022/08/23 04:45:45;;;;;;;;;;;24.90;92.70;;;;;;5035745;28;20286;-78
2022/08/23 04:48:12;;;;;;;;;;;24.90;92.70;;;;;;5035598;28;19927;-76
2022/08/23 04:50:39;;;;;;;;;;;24.90;92.70;;;;;;5035941;28;19927;-78
2022/08/23 04:53:06;;;;;;;;;;;24.90;92.70;;;;;;5036153;28;19921;-79
2022/08/23 04:55:34;;;;;;;;;;;24.90;92.70;;;;;;5035768;28;19968;-77
2022/08/23 04:58:00;;;;;;;;;;;24.90;92.70;;;;;;5035816;28;19921;-78
2022/08/23 05:00:28;;;;;;;;;;;24.90;92.70;;;;;;5035001;28;19940;-78
2022/08/23 05:02:55;;;;;;;;;;;24.90;92.70;;;;;;5035356;28;19925;-78
2022/08/23 05:05:21;;;;;;;;;;;24.90;92.70;;;;;;5035480;28;19931;-77
2022/08/23 05:07:48;;;;;;;;;;;24.90;93.10;;;;;;5035120;28;19927;-76
2022/08/23 05:10:16;;;;;;;;;;;24.90;92.70;;;;;;5037004;28;19972;-76
2022/08/23 05:12:44;;;;;;;;;;;24.90;92.70;;;;;;5035707;28;19921;-76
2022/08/23 05:15:11;;;;;;;;;;;24.90;92.70;;;;;;5035579;28;20017;-76
2022/08/23 05:17:38;;;;;;;;;;;24.90;92.70;;;;;;5035506;28;20015;-77
2022/08/23 05:20:06;;;;;;;;;;;24.90;92.70;;;;;;5034906;28;19920;-76
2022/08/23 05:22:33;;;;;;;;;;;24.90;92.70;;;;;;5035405;28;20284;-77
2022/08/23 05:25:00;;;;;;;;;;;24.90;92.70;;;;;;5090282;22;19934;-81
2022/08/23 05:27:26;;;;;;;;;;;24.90;92.80;;;;;;5042530;28;20415;-81
2022/08/23 05:29:54;;;;;;;;;;;24.90;92.80;;;;;;5042914;28;19968;-81
2022/08/23 05:32:21;;;;;;;;;;;24.90;92.80;;;;;;5044191;28;20446;-82
2022/08/23 05:34:48;;;;;;;;;;;24.90;92.90;;;;;;5044207;28;20004;-81
2022/08/23 05:37:15;;;;;;;;;;;24.90;92.90;;;;;;5044657;28;19976;-81
2022/08/23 05:39:42;;;;;;;;;;;24.90;93.00;;;;;;5049677;28;19976;-81
2022/08/23 05:42:10;;;;;;;;;;;24.90;93.00;;;;;;5052852;28;19927;-81
2022/08/23 05:44:37;;;;;;;;;;;24.90;93.00;;;;;;5048734;28;19931;-81
2022/08/23 05:47:06;;;;;;;;;;;24.90;93.10;;;;;;5048480;28;20399;-81
2022/08/23 05:49:35;;;;;;;;;;;24.90;93.10;;;;;;5049242;28;19921;-81
2022/08/23 05:52:03;;;;;;;;;;;24.90;93.20;;;;;;5048148;28;19975;-81
2022/08/23 05:54:29;;;;;;;;;;;24.90;93.30;;;;;;5046526;28;19928;-81
2022/08/23 05:56:56;;;;;;;;;;;24.90;93.30;;;;;;5047084;28;19963;-81
2022/08/23 05:59:23;;;;;;;;;;;24.90;93.40;;;;;;5047207;28;19920;-81
2022/08/23 06:01:49;;;;;;;;;;;24.90;93.40;;;;;;5048284;28;20016;-81
2022/08/23 06:04:17;;;;;;;;;;;24.90;93.40;;;;;;5047556;28;19921;-81
2022/08/23 06:06:44;;;;;;;;;;;24.90;93.50;;;;;;5048096;28;19956;-81
2022/08/23 06:09:16;;;;;;;;;;;24.90;93.50;;;;;;5048555;28;19987;-81
2022/08/23 06:11:44;;;;;;;;;;;24.90;93.60;;;;;;5045082;28;20015;-81
2022/08/23 06:14:10;;;;;;;;;;;24.90;93.60;;;;;;5045328;28;19921;-81
2022/08/23 06:16:38;;;;;;;;;;;24.90;93.70;;;;;;5047473;28;19951;-81
2022/08/23 06:19:05;;;;;;;;;;;24.90;93.70;;;;;;5041698;28;20007;-81
2022/08/23 06:21:34;;;;;;;;;;;24.90;93.80;;;;;;5041794;28;19921;-81
2022/08/23 06:24:01;;;;;;;;;;;24.90;93.80;;;;;;5041765;28;20368;-81
2022/08/23 06:26:30;;;;;;;;;;;24.90;93.80;;;;;;5041660;28;20023;-81
2022/08/23 06:28:58;;;;;;;;;;;24.90;93.80;;;;;;5042081;28;19967;-81
2022/08/23 06:34:11;;;;;;;;;;;24.90;94.00;;;;;;5041211;28;19994;-81
2022/08/23 06:36:39;;;;;;;;;;;24.90;94.00;;;;;;5039584;28;20372;-82
2022/08/23 06:39:07;;;;;;;;;;;24.90;94.10;;;;;;5039702;28;20467;-81
2022/08/23 06:41:34;;;;;;;;;;;24.90;94.10;;;;;;5039903;28;20020;-81
2022/08/23 06:44:00;;;;;;;;;;;24.90;94.20;;;;;;5040687;28;19955;-81
2022/08/23 06:46:28;;;;;;;;;;;24.90;94.30;;;;;;5039913;28;19921;-81
2022/08/23 06:48:56;;;;;;;;;;;24.90;94.40;;;;;;5040760;28;20007;-81
2022/08/23 06:51:24;;;;;;;;;;;24.90;94.40;;;;;;5041971;28;19948;-80
2022/08/23 06:53:53;;;;;;;;;;;24.90;94.50;;;;;;5041613;28;19984;-80
2022/08/23 06:56:21;;;;;;;;;;;24.90;94.50;;;;;;5041001;28;19921;-80
2022/08/23 06:58:48;;;;;;;;;;;24.90;94.30;;;;;;5040905;28;19933;-80
2022/08/23 07:01:18;;;;;;;;;;;24.90;94.00;;;;;;5041209;28;19927;-80
2022/08/23 07:03:45;;;;;;;;;;;24.80;94.00;;;;;;5041536;28;19920;-79
2022/08/23 07:06:12;;;;;;;;;;;24.80;93.90;;;;;;5042178;28;19921;-79
2022/08/23 07:08:38;;;;;;;;;;;24.80;93.70;;;;;;5041755;28;19992;-79
2022/08/23 07:11:07;;;;;;;;;;;24.80;93.50;;;;;;5041314;28;20353;-79
2022/08/23 07:13:33;;;;;;;;;;;24.80;93.40;;;;;;5041979;28;19921;-79
2022/08/23 07:16:01;;;;;;;;;;;24.70;93.10;;;;;;5041740;28;20360;-79
2022/08/23 07:18:30;;;;;;;;;;;24.70;92.90;;;;;;5040803;28;19925;-79
2022/08/23 07:20:57;;;;;;;;;;;24.70;92.60;;;;;;5041555;28;19921;-79
2022/08/23 07:23:24;;;;;;;;;;;24.70;92.60;;;;;;5041395;28;19928;-78
2022/08/23 07:25:51;;;;;;;;;;;24.70;92.40;;;;;;5041570;28;19984;-78
2022/08/23 07:28:19;;;;;;;;;;;24.70;92.20;;;;;;5041649;28;19927;-78
2022/08/23 07:30:45;;;;;;;;;;;24.70;91.90;;;;;;5041841;28;20435;-78
2022/08/23 07:33:12;;;;;;;;;;;24.70;91.70;;;;;;5041286;28;19980;-78
2022/08/23 07:35:45;;;;;;;;;;;24.70;91.50;;;;;;5041984;28;20442;-79
2022/08/23 07:38:12;;;;;;;;;;;24.70;91.30;;;;;;5042169;28;20008;-79
2022/08/23 07:40:39;;;;;;;;;;;24.70;91.10;;;;;;5041782;28;20031;-79
2022/08/23 07:43:05;;;;;;;;;;;24.60;90.80;;;;;;5043279;28;19968;-79
2022/08/23 07:45:33;;;;;;;;;;;24.60;90.60;;;;;;5041112;28;20011;-78
2022/08/23 07:48:00;;;;;;;;;;;24.60;90.40;;;;;;5041576;28;20003;-78
2022/08/23 07:50:27;;;;;;;;;;;24.60;90.10;;;;;;5040808;28;19928;-79
2022/08/23 07:52:54;;;;;;;;;;;24.60;90.00;;;;;;5040529;28;20012;-79
2022/08/23 07:55:20;;;;;;;;;;;24.60;89.90;;;;;;5039863;28;20011;-79
2022/08/23 07:57:47;;;;;;;;;;;24.60;89.30;;;;;;5040632;28;20008;-79
2022/08/23 08:00:14;;;;;;;;;;;24.60;88.80;;;;;;5040417;28;20283;-79
2022/08/23 08:02:42;;;;;;;;;;;24.60;88.40;;;;;;5040774;28;19920;-79
2022/08/23 08:05:09;;;;;;;;;;;24.60;88.00;;;;;;5039588;28;20032;-78
2022/08/23 08:07:36;;;;;;;;;;;24.60;87.50;;;;;;5038598;28;20011;-78
2022/08/23 08:10:02;;;;;;;;;;;24.60;87.10;;;;;;5040107;28;19921;-79
2022/08/23 08:12:31;;;;;;;;;;;24.60;86.60;;;;;;5039582;28;20007;-79
2022/08/23 08:14:58;;;;;;;;;;;24.60;86.20;;;;;;5040222;28;20311;-79
2022/08/23 08:17:25;;;;;;;;;;;24.50;85.70;;;;;;5040374;28;20003;-78
2022/08/23 08:19:55;;;;;;;;;;;24.60;85.30;;;;;;5038954;28;19921;-78
2022/08/23 08:22:22;;;;;;;;;;;24.60;84.80;;;;;;5039905;28;19925;-78
2022/08/23 08:24:48;;;;;;;;;;;24.60;84.40;;;;;;5039226;28;19932;-78
2022/08/23 08:27:15;;;;;;;;;;;24.60;84.40;;;;;;5040640;28;19960;-78
2022/08/23 08:29:42;;;;;;;;;;;24.60;84.30;;;;;;5040709;28;20019;-78
2022/08/23 08:32:09;;;;;;;;;;;24.60;83.50;;;;;;5040283;28;19921;-78
2022/08/23 08:34:37;;;;;;;;;;;24.60;83.10;;;;;;5040224;28;20008;-78
2022/08/23 08:37:06;;;;;;;;;;;24.60;82.70;;;;;;5045305;28;19974;-79
2022/08/23 08:39:33;;;;;;;;;;;24.60;82.30;;;;;;5046820;28;19921;-79
2022/08/23 08:42:09;;;;;;;;;;;24.60;81.80;;;;;;5047561;28;19956;-79
2022/08/23 08:44:38;;;;;;;;;;;24.60;81.50;;;;;;5046997;28;19944;-79
2022/08/23 08:47:08;;;;;;;;;;;24.60;81.00;;;;;;5047152;28;20392;-79
2022/08/23 08:49:36;;;;;;;;;;;24.60;80.60;;;;;;5047328;28;19967;-79
2022/08/23 08:52:10;;;;;;;;;;;24.60;81.00;;;;;;5046463;28;19967;-79
2022/08/23 08:54:37;;;;;;;;;;;24.60;79.90;;;;;;5046853;28;19921;-79
2022/08/23 08:57:04;;;;;;;;;;;24.60;79.50;;;;;;5046828;28;19927;-79
2022/08/23 08:59:39;;;;;;;;;;;24.60;79.00;;;;;;5047646;28;19972;-79
2022/08/23 09:02:07;;;;;;;;;;;24.60;78.60;;;;;;5047133;28;20008;-79
2022/08/23 09:04:36;;;;;;;;;;;24.60;78.60;;;;;;5047084;28;19921;-79
2022/08/23 09:07:09;;;;;;;;;;;24.60;78.30;;;;;;5046886;28;19921;-79
2022/08/23 09:09:47;;;;;;;;;;;24.60;77.90;;;;;;5047676;28;19985;-79
2022/08/23 09:12:20;;;;;;;;;;;24.60;77.50;;;;;;5047456;28;19981;-79
2022/08/23 09:14:58;;;;;;;;;;;24.60;77.10;;;;;;5046997;28;19948;-79
2022/08/23 09:17:30;;;;;;;;;;;24.60;76.70;;;;;;5046607;28;20269;-79
2022/08/23 09:19:59;;;;;;;;;;;24.60;76.30;;;;;;5047430;28;19921;-79
2022/08/23 09:22:30;;;;;;;;;;;24.60;75.90;;;;;;5048160;28;19931;-79
2022/08/23 09:24:58;;;;;;;;;;;24.60;75.60;;;;;;5046922;28;19928;-79
2022/08/23 09:27:25;;;;;;;;;;;24.60;75.20;;;;;;5048061;28;19956;-79
2022/08/23 09:29:53;;;;;;;;;;;24.60;74.90;;;;;;5047220;28;19956;-79
2022/08/23 09:32:27;;;;;;;;;;;24.60;74.50;;;;;;5046618;28;19944;-79
2022/08/23 09:35:04;;;;;;;;;;;24.60;74.10;;;;;;5047773;28;19956;-79
2022/08/23 09:37:32;;;;;;;;;;;24.60;73.60;;;;;;5046261;28;20439;-79
2022/08/23 09:40:15;;;;;;;;;;;24.60;73.20;;;;;;5045513;28;20440;-80
2022/08/23 09:42:42;;;;;;;;;;;24.60;73.50;;;;;;5044756;28;19988;-79
2022/08/23 09:45:25;;;;;;;;;;;24.60;72.70;;;;;;5044060;28;20016;-80
2022/08/23 09:47:52;;;;;;;;;;;24.60;72.70;;;;;;5045807;28;19964;-79
2022/08/23 09:50:24;;;;;;;;;;;24.60;73.10;;;;;;5043234;28;19921;-80
2022/08/23 09:52:54;;;;;;;;;;;24.60;72.00;;;;;;5041216;28;19925;-79
2022/08/23 09:55:34;;;;;;;;;;;24.60;71.60;;;;;;5042308;28;20444;-79
2022/08/23 09:58:01;;;;;;;;;;;24.70;72.10;;;;;;5042401;28;19931;-79
2022/08/23 10:00:31;;;;;;;;;;;24.60;71.00;;;;;;5042248;28;20020;-79
2022/08/23 10:03:19;;;;;;;;;;;24.70;70.80;;;;;;5042345;28;19992;-79
2022/08/23 10:05:49;;;;;;;;;;;24.70;70.50;;;;;;5042522;28;19999;-79
2022/08/23 10:08:21;;;;;;;;;;;24.70;70.10;;;;;;5039499;28;19996;-79
2022/08/23 10:10:51;;;;;;;;;;;24.70;69.80;;;;;;5038850;28;20012;-79
2022/08/23 10:13:19;;;;;;;;;;;24.70;69.50;;;;;;5039285;28;20373;-79
2022/08/23 10:15:50;;;;;;;;;;;24.70;69.30;;;;;;5039734;28;19921;-79
2022/08/23 10:18:22;;;;;;;;;;;24.70;69.00;;;;;;5041362;28;19921;-79
2022/08/23 10:20:52;;;;;;;;;;;24.70;68.70;;;;;;5040823;28;19927;-79
2022/08/23 10:23:23;;;;;;;;;;;24.70;68.30;;;;;;5038720;28;20380;-79
2022/08/23 10:25:53;;;;;;;;;;;24.70;68.10;;;;;;5039567;28;20008;-79
2022/08/23 10:31:22;;;;;;;;;;;24.70;67.40;;;;;;5001968;28;19917;-79
2022/08/23 10:33:53;;;;;;;;;;;24.70;67.00;;;;;;5040556;28;20007;-79
2022/08/23 10:36:26;;;;;;;;;;;24.70;66.80;;;;;;5040920;28;19929;-79
2022/08/23 10:38:56;;;;;;;;;;;24.70;66.90;;;;;;5040566;28;20015;-79
2022/08/23 10:41:36;;;;;;;;;;;24.70;66.50;;;;;;5039914;28;20029;-79
2022/08/23 10:44:21;;;;;;;;;;;24.70;66.20;;;;;;5039732;28;20364;-79
2022/08/23 10:46:50;;;;;;;;;;;24.70;65.80;;;;;;5038967;28;19981;-79
2022/08/23 10:49:17;;;;;;;;;;;24.70;65.50;;;;;;5039003;28;19989;-79
2022/08/23 10:51:46;;;;;;;;;;;24.70;65.20;;;;;;5039417;28;20352;-79
2022/08/23 10:54:15;;;;;;;;;;;24.70;64.90;;;;;;5039492;28;19927;-79
2022/08/23 10:56:43;;;;;;;;;;;24.70;64.60;;;;;;5039227;28;19927;-79
2022/08/23 10:59:13;;;;;;;;;;;24.70;64.30;;;;;;5039803;28;20339;-79
2022/08/23 11:01:42;;;;;;;;;;;24.70;64.00;;;;;;5039709;28;19927;-79
2022/08/23 11:04:16;;;;;;;;;;;24.70;63.80;;;;;;5039761;28;19944;-79
2022/08/23 11:06:45;;;;;;;;;;;24.70;63.40;;;;;;5040306;28;20008;-79
2022/08/23 11:09:27;;;;;;;;;;;24.70;63.10;;;;;;5040851;28;20403;-81
2022/08/23 11:12:10;;;;;;;;;;;24.70;62.90;;;;;;5040564;28;19921;-81
2022/08/23 11:14:38;;;;;;;;;;;24.70;62.60;;;;;;5039692;28;20360;-78
2022/08/23 11:17:06;;;;;;;;;;;24.70;62.30;;;;;;5035158;28;20359;-78
2022/08/23 11:19:47;;;;;;;;;;;24.70;62.10;;;;;;5034386;28;20011;-77
2022/08/23 11:22:15;;;;;;;;;;;24.70;61.90;;;;;;5034373;28;19972;-78
2022/08/23 11:24:59;;;;;;;;;;;24.80;61.80;;;;;;5037548;28;19971;-77
2022/08/23 11:27:35;;;;;;;;;;;24.80;61.60;;;;;;5042769;28;20331;-79
2022/08/23 11:30:20;;;;;;;;;;;24.80;61.30;;;;;;5042499;28;19960;-78
2022/08/23 11:32:47;;;;;;;;;;;24.80;61.00;;;;;;5042745;28;19921;-78
2022/08/23 11:35:31;;;;;;;;;;;24.80;60.80;;;;;;5042113;28;20011;-79
2022/08/23 11:38:00;;;;;;;;;;;24.80;60.80;;;;;;5042023;28;19921;-79
2022/08/23 11:40:51;;;;;;;;;;;24.80;60.80;;;;;;5042761;28;20351;-78
2022/08/23 11:43:24;;;;;;;;;;;24.80;60.80;;;;;;5031412;28;19921;-77
2022/08/23 11:45:51;;;;;;;;;;;24.80;60.80;;;;;;5042195;28;20364;-79
2022/08/23 11:48:21;;;;;;;;;;;24.80;60.80;;;;;;5045576;28;19928;-76
2022/08/23 11:50:58;;;;;;;;;;;24.20;60.10;;;;;;5046581;28;20257;-78
2022/08/23 11:53:46;;;;;;;;;;;24.90;60.70;;;;;;5048079;28;19944;-76
2022/08/23 11:56:28;;;;;;;;;;;24.90;60.60;;;;;;5048468;28;19921;-76
2022/08/23 11:59:08;;;;;;;;;;;24.90;60.50;;;;;;5046778;28;19960;-76
2022/08/23 12:01:37;;;;;;;;;;;24.90;60.40;;;;;;5045802;28;20368;-76
2022/08/23 12:04:13;;;;;;;;;;;24.90;60.40;;;;;;5043350;28;19921;-79
2022/08/23 12:06:42;;;;;;;;;;;24.90;60.30;;;;;;5043986;28;19928;-79
2022/08/23 12:09:30;;;;;;;;;;;24.90;60.20;;;;;;5046667;28;19921;-79
2022/08/23 12:12:24;;;;;;;;;;;24.90;60.10;;;;;;5043608;28;19921;-77
2022/08/23 12:15:05;;;;;;;;;;;24.90;60.10;;;;;;5044259;28;19943;-78
2022/08/23 12:17:52;;;;;;;;;;;24.90;60.10;;;;;;5045246;28;20001;-77
2022/08/23 12:20:22;;;;;;;;;;;24.90;60.00;;;;;;5041847;28;19928;-78
2022/08/23 12:22:57;;;;;;;;;;;24.90;60.00;;;;;;5043601;28;20027;-78
2022/08/23 12:25:24;;;;;;;;;;;24.90;60.00;;;;;;5044370;28;19988;-78
2022/08/23 12:27:55;;;;;;;;;;;24.90;60.00;;;;;;5043506;28;20388;-77
2022/08/23 12:30:25;;;;;;;;;;;24.90;60.00;;;;;;5045201;28;20310;-77
2022/08/23 12:32:55;;;;;;;;;;;24.90;60.00;;;;;;5043768;28;19987;-77
2022/08/23 12:35:30;;;;;;;;;;;24.90;60.00;;;;;;5041961;28;19925;-78
2022/08/23 12:38:01;;;;;;;;;;;25.00;60.00;;;;;;5044679;28;19928;-77
2022/08/23 12:40:31;;;;;;;;;;;25.00;60.00;;;;;;5042377;28;20343;-74
2022/08/23 12:43:03;;;;;;;;;;;25.00;60.00;;;;;;5043363;28;19921;-73
2022/08/23 12:45:37;;;;;;;;;;;25.00;60.00;;;;;;5043106;28;19928;-74
2022/08/23 12:48:08;;;;;;;;;;;25.00;60.10;;;;;;5042439;28;19974;-73
2022/08/23 12:50:36;;;;;;;;;;;25.00;60.20;;;;;;5040583;28;20012;-77
2022/08/23 12:53:04;;;;;;;;;;;25.00;60.30;;;;;;5038086;28;20015;-77
2022/08/23 12:55:32;;;;;;;;;;;25.10;60.50;;;;;;5038974;28;19928;-78
2022/08/23 12:57:59;;;;;;;;;;;25.10;60.60;;;;;;5039951;28;19920;-77
2022/08/23 13:00:29;;;;;;;;;;;25.10;60.70;;;;;;5039166;28;19952;-77
2022/08/23 13:03:00;;;;;;;;;;;25.10;60.90;;;;;;5042806;28;19921;-77
2022/08/23 13:05:31;;;;;;;;;;;25.10;61.00;;;;;;5038985;28;20023;-77
2022/08/23 13:07:58;;;;;;;;;;;25.10;61.00;;;;;;5038045;28;20019;-77
2022/08/23 13:10:26;;;;;;;;;;;25.20;61.20;;;;;;5036314;28;20398;-77
2022/08/23 13:12:53;;;;;;;;;;;25.20;61.10;;;;;;5035281;28;19932;-77
2022/08/23 13:15:38;;;;;;;;;;;25.20;61.20;;;;;;5038096;28;20004;-76
2022/08/23 13:18:06;;;;;;;;;;;25.20;61.10;;;;;;5038506;28;19948;-75
2022/08/23 13:20:33;;;;;;;;;;;25.20;61.20;;;;;;5038259;28;19975;-75
2022/08/23 13:23:02;;;;;;;;;;;25.30;61.60;;;;;;5038436;28;20284;-75
2022/08/23 13:25:30;;;;;;;;;;;25.30;61.80;;;;;;5038775;28;19921;-76
2022/08/23 13:27:58;;;;;;;;;;;25.30;62.00;;;;;;5038063;28;20277;-75
2022/08/23 13:30:26;;;;;;;;;;;25.30;62.20;;;;;;5038382;28;20021;-76
2022/08/23 13:33:12;;;;;;;;;;;25.30;62.40;;;;;;5038277;28;20012;-76
2022/08/23 13:35:42;;;;;;;;;;;25.40;62.60;;;;;;5037989;28;20003;-75
2022/08/23 13:38:13;;;;;;;;;;;25.40;62.90;;;;;;5035682;28;20028;-75
2022/08/23 13:40:41;;;;;;;;;;;25.40;63.00;;;;;;5037302;28;20017;-76
2022/08/23 13:43:10;;;;;;;;;;;25.40;63.20;;;;;;5038131;28;19921;-76
2022/08/23 13:45:44;;;;;;;;;;;25.50;63.40;;;;;;5038190;28;20385;-76
2022/08/23 13:48:13;;;;;;;;;;;25.50;63.60;;;;;;5037812;28;20021;-76
2022/08/23 13:50:41;;;;;;;;;;;25.50;63.90;;;;;;5037730;28;19921;-76
2022/08/23 13:53:08;;;;;;;;;;;25.50;64.00;;;;;;5037820;28;20028;-76
2022/08/23 13:55:40;;;;;;;;;;;25.60;64.30;;;;;;5037973;28;19921;-76
2022/08/23 13:58:09;;;;;;;;;;;25.60;64.50;;;;;;5037899;28;19973;-76
2022/08/23 14:00:36;;;;;;;;;;;25.60;64.60;;;;;;5038337;28;19921;-75
2022/08/23 14:03:03;;;;;;;;;;;25.60;64.80;;;;;;5037498;28;20023;-76
2022/08/23 14:05:30;;;;;;;;;;;25.60;64.90;;;;;;5037321;28;19928;-75
2022/08/23 14:07:58;;;;;;;;;;;25.70;65.10;;;;;;5037800;28;19921;-73
2022/08/23 14:10:24;;;;;;;;;;;25.70;65.20;;;;;;5037232;28;20016;-75
2022/08/23 14:12:55;;;;;;;;;;;25.70;66.00;;;;;;5037705;28;20008;-74
2022/08/23 14:15:22;;;;;;;;;;;25.70;65.30;;;;;;5037659;28;20376;-76
2022/08/23 14:17:50;;;;;;;;;;;25.70;65.40;;;;;;5037651;28;20012;-75
2022/08/23 14:20:18;;;;;;;;;;;25.60;65.40;;;;;;5037384;28;20027;-78
2022/08/23 14:22:45;;;;;;;;;;;25.70;65.50;;;;;;5037260;28;20356;-78
2022/08/23 14:25:13;;;;;;;;;;;25.70;65.60;;;;;;5037177;28;20353;-78
2022/08/23 14:27:41;;;;;;;;;;;25.70;65.70;;;;;;5036011;28;19925;-77
2022/08/23 14:30:10;;;;;;;;;;;25.60;65.60;;;;;;5037136;28;20360;-77
2022/08/23 14:32:37;;;;;;;;;;;25.60;65.70;;;;;;5036948;28;19921;-77
2022/08/23 14:35:04;;;;;;;;;;;25.70;65.80;;;;;;5037067;28;19921;-76
2022/08/23 14:37:31;;;;;;;;;;;25.70;65.80;;;;;;5037623;28;19988;-77
2022/08/23 14:39:58;;;;;;;;;;;25.60;65.90;;;;;;5037443;28;20016;-77
2022/08/23 14:42:26;;;;;;;;;;;25.60;65.90;;;;;;5037417;28;19921;-77
2022/08/23 14:44:52;;;;;;;;;;;25.60;66.00;;;;;;5037321;28;20015;-77
2022/08/23 14:47:19;;;;;;;;;;;25.60;66.10;;;;;;5037036;28;20008;-77
2022/08/23 14:49:46;;;;;;;;;;;25.60;66.10;;;;;;5036546;28;19952;-77
2022/08/23 14:52:13;;;;;;;;;;;25.60;66.20;;;;;;5037396;28;19960;-77
2022/08/23 14:54:39;;;;;;;;;;;25.60;66.30;;;;;;5037340;28;19959;-76
2022/08/23 14:57:06;;;;;;;;;;;25.60;67.10;;;;;;5036984;28;20004;-77
2022/08/23 14:59:34;;;;;;;;;;;25.60;66.50;;;;;;5036533;28;20015;-77
2022/08/23 15:02:01;;;;;;;;;;;25.60;66.60;;;;;;5037382;28;20284;-77
2022/08/23 15:04:28;;;;;;;;;;;25.60;66.70;;;;;;5037316;28;19921;-77
2022/08/23 15:06:56;;;;;;;;;;;25.60;66.80;;;;;;5037082;28;19925;-77
2022/08/23 15:09:23;;;;;;;;;;;25.60;66.90;;;;;;5037077;28;19921;-77
2022/08/23 15:11:50;;;;;;;;;;;25.60;67.00;;;;;;5038133;28;19952;-77
2022/08/23 15:14:17;;;;;;;;;;;25.60;67.10;;;;;;5037684;28;19944;-77
2022/08/23 15:16:45;;;;;;;;;;;25.60;67.30;;;;;;5041017;28;19956;-76
2022/08/23 15:19:12;;;;;;;;;;;25.60;67.50;;;;;;5042039;28;20333;-77
2022/08/23 15:21:39;;;;;;;;;;;25.60;67.60;;;;;;5040192;28;19921;-77
2022/08/23 15:24:06;;;;;;;;;;;25.60;67.60;;;;;;5037903;28;19921;-79
2022/08/23 15:26:33;;;;;;;;;;;25.60;67.60;;;;;;5038578;28;20296;-79
2022/08/23 15:29:00;;;;;;;;;;;25.60;67.60;;;;;;5038108;28;19984;-78
2022/08/23 15:31:27;;;;;;;;;;;25.60;67.60;;;;;;5039613;28;20012;-78
2022/08/23 15:33:55;;;;;;;;;;;25.60;67.60;;;;;;5039803;28;19991;-78
2022/08/23 15:36:22;;;;;;;;;;;25.60;67.60;;;;;;5039507;28;19925;-78
2022/08/23 15:38:49;;;;;;;;;;;25.60;67.60;;;;;;5039257;28;20381;-79
2022/08/23 15:41:16;;;;;;;;;;;25.50;67.50;;;;;;5039304;28;19921;-79
2022/08/23 15:43:43;;;;;;;;;;;25.50;67.50;;;;;;5039700;28;19921;-79
2022/08/23 15:46:12;;;;;;;;;;;25.50;67.60;;;;;;5040232;28;19927;-78
2022/08/23 15:48:42;;;;;;;;;;;25.50;67.60;;;;;;5043169;28;19921;-79
2022/08/23 15:51:11;;;;;;;;;;;25.50;67.80;;;;;;5043138;28;19921;-78
2022/08/23 15:53:38;;;;;;;;;;;25.50;67.80;;;;;;5043764;28;19968;-79
2022/08/23 15:56:07;;;;;;;;;;;25.50;67.90;;;;;;5044898;28;19921;-80
2022/08/23 15:58:37;;;;;;;;;;;25.50;68.00;;;;;;5044746;28;19921;-80
2022/08/23 16:01:04;;;;;;;;;;;25.50;68.00;;;;;;5045624;28;19921;-80
2022/08/23 16:03:31;;;;;;;;;;;25.40;68.00;;;;;;5043969;28;19944;-79
2022/08/23 16:05:58;;;;;;;;;;;25.40;68.10;;;;;;5043706;28;19943;-79
2022/08/23 16:08:30;;;;;;;;;;;25.40;68.20;;;;;;5040465;28;19932;-82
2022/08/23 16:10:57;;;;;;;;;;;25.40;68.20;;;;;;5040168;28;20303;-81
2022/08/23 16:13:25;;;;;;;;;;;25.40;68.30;;;;;;5040214;28;19959;-81
2022/08/23 16:15:52;;;;;;;;;;;25.40;68.30;;;;;;5039821;28;20003;-80
2022/08/23 16:18:18;;;;;;;;;;;25.40;68.30;;;;;;5040967;28;19920;-81
2022/08/23 16:20:45;;;;;;;;;;;25.40;68.40;;;;;;5041427;28;20057;-80
2022/08/23 16:23:12;;;;;;;;;;;25.30;68.30;;;;;;5040321;28;19932;-80
2022/08/23 16:25:40;;;;;;;;;;;25.30;68.40;;;;;;5040600;28;20332;-81
2022/08/23 16:28:07;;;;;;;;;;;25.30;68.40;;;;;;5040569;28;20019;-81
2022/08/23 16:30:34;;;;;;;;;;;25.30;68.50;;;;;;5040884;28;20383;-81
2022/08/23 16:33:01;;;;;;;;;;;25.30;68.50;;;;;;5041643;28;19964;-81
2022/08/23 16:35:27;;;;;;;;;;;25.30;68.60;;;;;;5040916;28;20020;-81
2022/08/23 16:37:54;;;;;;;;;;;25.30;68.60;;;;;;5041475;28;19927;-80
2022/08/23 16:40:21;;;;;;;;;;;25.30;68.60;;;;;;5041375;28;19964;-80
2022/08/23 16:42:49;;;;;;;;;;;25.30;68.60;;;;;;5041486;28;19921;-80
2022/08/23 16:45:16;;;;;;;;;;;25.30;68.60;;;;;;5041529;28;20012;-80
2022/08/23 16:47:43;;;;;;;;;;;25.30;68.70;;;;;;5041032;28;19992;-80
2022/08/23 16:50:10;;;;;;;;;;;25.30;68.70;;;;;;5040922;28;20439;-80
2022/08/23 16:52:37;;;;;;;;;;;25.30;68.70;;;;;;5040934;28;19988;-80
2022/08/23 16:55:06;;;;;;;;;;;25.30;68.80;;;;;;5040388;28;20019;-80
2022/08/23 16:57:33;;;;;;;;;;;25.30;68.80;;;;;;5039894;28;20441;-80
2022/08/23 17:00:01;;;;;;;;;;;25.30;68.80;;;;;;5040518;28;19968;-80
2022/08/23 17:02:29;;;;;;;;;;;25.30;68.80;;;;;;5041358;28;20272;-80
2022/08/23 17:04:56;;;;;;;;;;;25.30;68.90;;;;;;5041438;28;19931;-81
2022/08/23 17:07:23;;;;;;;;;;;25.30;68.90;;;;;;5040585;28;19975;-81
2022/08/23 17:09:49;;;;;;;;;;;25.30;68.90;;;;;;5040497;28;19985;-81
2022/08/23 17:12:17;;;;;;;;;;;25.30;69.00;;;;;;5040744;28;19925;-80
2022/08/23 17:14:44;;;;;;;;;;;25.30;69.00;;;;;;5040915;28;20007;-80
2022/08/23 17:17:13;;;;;;;;;;;25.20;68.90;;;;;;5040305;28;20348;-80
2022/08/23 17:19:39;;;;;;;;;;;25.20;69.00;;;;;;5040308;28;19936;-80
2022/08/23 17:22:06;;;;;;;;;;;25.20;69.00;;;;;;5040582;28;20020;-80
2022/08/23 17:24:33;;;;;;;;;;;25.20;69.00;;;;;;5040603;28;20023;-80
2022/08/23 17:26:59;;;;;;;;;;;25.20;69.10;;;;;;5040873;28;20016;-80
2022/08/23 17:29:26;;;;;;;;;;;25.20;69.10;;;;;;5041157;28;19973;-80
2022/08/23 17:31:53;;;;;;;;;;;25.20;69.10;;;;;;5040362;28;19928;-80
2022/08/23 17:34:21;;;;;;;;;;;25.20;69.10;;;;;;5036274;28;19921;-79
2022/08/23 17:36:49;;;;;;;;;;;25.20;69.20;;;;;;5038817;28;19921;-80
2022/08/23 17:39:17;;;;;;;;;;;25.20;69.10;;;;;;5040929;28;19925;-80
2022/08/23 17:41:43;;;;;;;;;;;25.20;68.90;;;;;;5041130;28;19967;-80
2022/08/23 17:44:10;;;;;;;;;;;25.10;68.60;;;;;;5042177;28;19921;-80
2022/08/23 17:46:38;;;;;;;;;;;25.10;68.50;;;;;;5042097;28;19944;-80
2022/08/23 17:49:05;;;;;;;;;;;25.10;68.40;;;;;;5042360;28;19921;-80
2022/08/23 17:51:34;;;;;;;;;;;25.10;68.10;;;;;;5041817;28;20016;-80
2022/08/23 17:54:01;;;;;;;;;;;25.10;68.00;;;;;;5043107;28;19920;-80
2022/08/23 17:56:27;;;;;;;;;;;25.00;67.70;;;;;;5041272;28;20296;-80
2022/08/23 17:58:54;;;;;;;;;;;25.00;67.40;;;;;;5041576;28;20346;-80
2022/08/23 18:01:21;;;;;;;;;;;25.00;67.10;;;;;;5041880;28;19921;-80
2022/08/23 18:03:48;;;;;;;;;;;25.00;67.10;;;;;;5042596;28;19928;-80
2022/08/23 18:06:15;;;;;;;;;;;25.00;67.10;;;;;;5042346;28;19921;-80
2022/08/23 18:08:43;;;;;;;;;;;25.00;67.20;;;;;;5042319;28;19976;-81
2022/08/23 18:11:10;;;;;;;;;;;25.00;66.90;;;;;;5042588;28;19960;-81
2022/08/23 18:13:36;;;;;;;;;;;25.00;66.60;;;;;;5044260;28;19980;-81
2022/08/23 18:16:03;;;;;;;;;;;24.90;66.30;;;;;;5043278;28;19960;-83
2022/08/23 18:18:31;;;;;;;;;;;25.00;66.20;;;;;;5044996;28;19981;-82
2022/08/23 18:20:57;;;;;;;;;;;24.90;65.90;;;;;;5045775;28;19925;-82
2022/08/23 18:23:25;;;;;;;;;;;24.90;65.70;;;;;;5039859;28;19960;-79
2022/08/23 18:25:53;;;;;;;;;;;24.90;65.60;;;;;;5037623;28;19944;-79
2022/08/23 18:28:18;;;;;;;;;;;24.90;65.30;;;;;;5038297;28;19927;-79
2022/08/23 18:30:46;;;;;;;;;;;24.90;65.20;;;;;;5037838;28;19960;-79
2022/08/23 18:33:13;;;;;;;;;;;24.90;65.00;;;;;;5039347;28;19921;-79
2022/08/23 18:35:40;;;;;;;;;;;24.90;64.80;;;;;;5037837;28;19944;-79
2022/08/23 18:38:08;;;;;;;;;;;24.90;64.70;;;;;;5036420;28;19964;-79
2022/08/23 18:40:43;;;;;;;;;;;24.90;64.50;;;;;;5037064;28;19928;-79
2022/08/23 18:43:12;;;;;;;;;;;24.90;64.30;;;;;;5036265;28;19939;-78
2022/08/23 18:45:38;;;;;;;;;;;24.90;64.10;;;;;;5037602;28;20008;-79
2022/08/23 18:48:05;;;;;;;;;;;24.90;63.90;;;;;;5038348;28;20016;-80
2022/08/23 18:50:32;;;;;;;;;;;24.90;63.80;;;;;;5038036;28;19943;-79
2022/08/23 18:52:59;;;;;;;;;;;24.90;63.60;;;;;;5040117;28;19968;-79
2022/08/23 18:55:26;;;;;;;;;;;24.90;63.40;;;;;;5040297;28;20015;-80
2022/08/23 18:57:53;;;;;;;;;;;24.90;63.30;;;;;;5041825;28;19927;-80
2022/08/23 19:00:21;;;;;;;;;;;24.90;63.10;;;;;;5041985;28;19976;-80
2022/08/23 19:02:48;;;;;;;;;;;24.80;62.90;;;;;;5042699;28;19999;-80
2022/08/23 19:05:15;;;;;;;;;;;24.80;62.80;;;;;;5042304;28;20015;-80
2022/08/23 19:07:41;;;;;;;;;;;24.80;62.60;;;;;;5048396;28;19980;-80
2022/08/23 19:10:09;;;;;;;;;;;24.80;62.40;;;;;;5048044;28;19984;-80
2022/08/23 19:12:36;;;;;;;;;;;24.80;62.30;;;;;;5045168;28;20289;-79
2022/08/23 19:15:02;;;;;;;;;;;24.80;62.10;;;;;;5043634;28;19960;-79